Time;durP1;ratioP1;P1;durP2;ratioP2;P2;SDS_P1;SDS_P2;PMS_P1;PMS_P2;Temp;Humidity;BMP_temperature;BMP_pressure;BME280_temperature;BME280_humidity;BME280_pressure;Samples;Min_cycle;Max_cycle;Signal;HPM_P1;HPM_P2
2022/02/11 00:02:09;;;;;;;10.45;4.35;;;;;;;;;;4994273;28;20050;-72
2022/02/11 00:07:07;;;;;;;7.40;3.90;;;;;;;;;;4994063;28;20078;-73
2022/02/11 00:09:36;;;;;;;8.15;3.85;;;;;;;;;;4994099;28;20497;-70
2022/02/11 00:12:04;;;;;;;8.00;3.63;;;;;;;;;;4993973;28;20051;-71
2022/02/11 00:14:40;;;;;;;7.15;3.42;;;;;;;;;;4994018;28;20042;-70
2022/02/11 00:17:09;;;;;;;9.45;3.42;;;;;;;;;;4994149;28;20054;-71
2022/02/11 00:19:36;;;;;;;6.93;3.88;;;;;;;;;;4976506;28;20406;-71
2022/02/11 00:22:04;;;;;;;6.03;3.13;;;;;;;;;;4993804;28;20066;-70
2022/02/11 00:24:31;;;;;;;4.75;3.05;;;;;;;;;;4993751;28;20121;-71
2022/02/11 00:33:10;;;;;;;8.45;3.35;;;;;;;;;;4993774;28;20145;-71
2022/02/11 00:35:17;;;;;;;8.13;4.22;;;;;;;;;;4980130;28;20046;-71
2022/02/11 00:37:45;;;;;;;6.75;3.63;;;;;;;;;;4993462;28;20061;-74
2022/02/11 00:40:27;;;;;;;6.70;3.30;;;;;;;;;;4990775;28;20050;-74
2022/02/11 01:02:10;;;;;;;6.43;2.58;;;;;;;;;;4963950;28;20054;-70
2022/02/11 01:04:31;;;;;;;5.63;2.47;;;;;;;;;;4993205;28;20102;-71
2022/02/11 01:06:58;;;;;;;5.38;2.40;;;;;;;;;;4993565;28;20050;-73
2022/02/11 01:09:25;;;;;;;4.07;2.30;;;;;;;;;;4993120;28;20462;-71
2022/02/11 01:11:57;;;;;;;3.58;2.25;;;;;;;;;;4993170;28;20126;-71
2022/02/11 01:14:37;;;;;;;5.25;2.25;;;;;;;;;;4993892;28;20050;-73
2022/02/11 01:17:36;;;;;;;6.35;2.92;;;;;;;;;;4993469;28;20035;-71
2022/02/11 01:20:17;;;;;;;5.60;2.28;;;;;;;;;;4993161;28;20093;-71
2022/02/11 01:28:35;;;;;;;4.65;2.55;;;;;;;;;;4993193;28;20031;-71
2022/02/11 01:31:16;;;;;;;6.28;2.60;;;;;;;;;;4996271;28;20045;-71
2022/02/11 01:36:37;;;;;;;4.13;2.40;;;;;;;;;;4993453;28;20117;-71
2022/02/11 01:49:56;;;;;;;5.35;2.92;;;;;;;;;;5007400;28;20042;-71
2022/02/11 01:57:34;;;;;;;4.13;2.50;;;;;;;;;;4997399;28;20464;-71
2022/02/11 02:27:28;;;;;;;6.68;2.60;;;;;;;;;;4996323;28;20051;-71
2022/02/11 02:35:48;;;;;;;4.93;2.47;;;;;;;;;;4995952;28;20046;-71
2022/02/11 02:57:16;;;;;;;4.07;2.67;;;;;;;;;;4996266;28;20646;-71
2022/02/11 03:49:31;;;;;;;5.95;3.10;;;;;;;;;;4977292;28;20150;-71
2022/02/11 03:53:06;;;;;;;7.20;3.20;;;;;;;;;;4995067;28;20042;-73
2022/02/11 04:55:05;;;;;;;11.18;3.35;;;;;;;;;;4974781;28;20043;-70
2022/02/11 05:00:19;;;;;;;8.13;3.47;;;;;;;;;;4973896;28;20051;-71
2022/02/11 05:02:49;;;;;;;9.30;3.40;;;;;;;;;;4974416;28;20054;-73
2022/02/11 05:05:16;;;;;;;6.53;3.35;;;;;;;;;;4974283;28;20057;-70
2022/02/11 05:07:44;;;;;;;5.78;3.33;;;;;;;;;;4974197;28;20047;-71
2022/02/11 05:10:15;;;;;;;5.55;3.25;;;;;;;;;;4974424;28;20090;-71
2022/02/11 05:12:45;;;;;;;8.63;3.60;;;;;;;;;;4973711;28;20045;-71
2022/02/11 05:15:12;;;;;;;6.25;3.58;;;;;;;;;;4974580;28;20043;-71
2022/02/11 05:17:50;;;;;;;4.22;3.08;;;;;;;;;;4974099;28;20066;-73
2022/02/11 05:20:19;;;;;;;7.72;3.30;;;;;;;;;;4974149;28;20116;-72
2022/02/11 05:22:46;;;;;;;6.15;3.13;;;;;;;;;;4975718;28;20074;-72
2022/02/11 05:25:14;;;;;;;8.32;3.42;;;;;;;;;;4976645;28;20051;-71
2022/02/11 05:27:41;;;;;;;6.68;3.30;;;;;;;;;;4978286;28;20054;-71
2022/02/11 05:30:10;;;;;;;8.32;3.28;;;;;;;;;;4977916;28;20039;-71
2022/02/11 05:32:38;;;;;;;7.90;3.30;;;;;;;;;;4978358;28;20126;-74
2022/02/11 05:35:06;;;;;;;5.85;3.38;;;;;;;;;;4977874;28;20035;-71
2022/02/11 05:37:34;;;;;;;6.65;3.10;;;;;;;;;;4977847;28;20138;-72
2022/02/11 05:40:04;;;;;;;5.20;3.17;;;;;;;;;;4977603;28;20043;-73
2022/02/11 05:42:31;;;;;;;9.45;3.17;;;;;;;;;;4977852;28;20053;-73
2022/02/11 05:45:00;;;;;;;7.38;3.20;;;;;;;;;;4960362;28;20042;-72
2022/02/11 05:47:27;;;;;;;11.63;3.00;;;;;;;;;;4979481;28;20563;-70
2022/02/11 05:49:55;;;;;;;6.90;3.60;;;;;;;;;;4997363;28;20049;-71
2022/02/11 05:52:42;;;;;;;12.98;4.80;;;;;;;;;;4996832;28;20038;-71
2022/02/11 05:55:10;;;;;;;10.38;3.78;;;;;;;;;;4979490;28;20050;-73
2022/02/11 05:57:37;;;;;;;4.82;3.42;;;;;;;;;;4989247;28;20404;-71
2022/02/11 06:00:07;;;;;;;12.02;3.80;;;;;;;;;;4979155;28;20058;-72
2022/02/11 06:02:39;;;;;;;8.45;3.70;;;;;;;;;;4997798;28;20057;-71
2022/02/11 06:05:06;;;;;;;8.48;3.47;;;;;;;;;;4995267;28;20041;-71
2022/02/11 06:07:34;;;;;;;8.75;3.63;;;;;;;;;;4997913;28;20498;-69
2022/02/11 06:10:01;;;;;;;9.65;3.45;;;;;;;;;;4997579;28;20046;-70
2022/02/11 06:12:28;;;;;;;6.65;3.53;;;;;;;;;;4996390;28;20502;-69
2022/02/11 06:14:56;;;;;;;6.15;3.63;;;;;;;;;;4997159;28;20457;-70
2022/02/11 06:17:23;;;;;;;10.32;4.00;;;;;;;;;;4996508;28;20038;-72
2022/02/11 06:19:51;;;;;;;11.82;4.05;;;;;;;;;;4996476;28;20046;-70
2022/02/11 06:22:19;;;;;;;5.75;3.83;;;;;;;;;;4996701;28;20053;-72
2022/02/11 06:24:47;;;;;;;8.13;3.60;;;;;;;;;;4998152;28;20449;-69
2022/02/11 06:27:16;;;;;;;8.27;3.25;;;;;;;;;;4995686;28;20061;-72
2022/02/11 06:29:43;;;;;;;8.95;3.55;;;;;;;;;;4997861;28;20490;-69
2022/02/11 06:32:11;;;;;;;9.88;3.50;;;;;;;;;;4976782;28;20133;-70
2022/02/11 06:34:38;;;;;;;11.30;3.78;;;;;;;;;;4976805;28;20065;-68
2022/02/11 06:37:07;;;;;;;11.00;4.00;;;;;;;;;;4992580;28;20039;-70
2022/02/11 06:39:34;;;;;;;10.27;4.15;;;;;;;;;;4977509;28;20066;-70
2022/02/11 06:42:02;;;;;;;8.57;3.90;;;;;;;;;;4993915;28;20725;-70
2022/02/11 06:44:30;;;;;;;12.40;4.45;;;;;;;;;;4992864;28;20042;-70
2022/02/11 06:46:58;;;;;;;10.55;4.18;;;;;;;;;;4995247;28;20047;-72
2022/02/11 06:49:25;;;;;;;10.02;4.60;;;;;;;;;;4992163;28;20581;-69
2022/02/11 06:51:53;;;;;;;15.45;5.28;;;;;;;;;;4977612;28;20049;-72
2022/02/11 06:54:21;;;;;;;8.70;4.43;;;;;;;;;;4995232;28;20038;-69
2022/02/11 06:56:48;;;;;;;13.40;4.82;;;;;;;;;;4994815;28;20498;-68
2022/02/11 06:59:16;;;;;;;12.27;4.30;;;;;;;;;;4986681;28;20047;-70
2022/02/11 07:01:44;;;;;;;11.82;4.85;;;;;;;;;;4993046;28;20528;-71
2022/02/11 07:04:16;;;;;;;11.30;4.68;;;;;;;;;;4977985;28;20518;-69
2022/02/11 07:06:45;;;;;;;11.68;4.40;;;;;;;;;;4977725;28;20046;-72
2022/02/11 07:09:13;;;;;;;10.63;4.53;;;;;;;;;;4994664;28;20414;-71
2022/02/11 07:11:40;;;;;;;9.30;5.22;;;;;;;;;;4994078;28;20030;-72
2022/02/11 07:14:08;;;;;;;11.45;4.93;;;;;;;;;;4995145;28;20038;-71
2022/02/11 07:16:35;;;;;;;11.65;5.03;;;;;;;;;;4994930;28;20034;-71
2022/02/11 07:19:03;;;;;;;19.90;6.10;;;;;;;;;;4994860;28;20519;-70
2022/02/11 07:21:31;;;;;;;7.95;4.82;;;;;;;;;;4992214;28;20042;-72
2022/02/11 07:23:58;;;;;;;9.43;5.45;;;;;;;;;;4974602;28;20128;-75
2022/02/11 07:26:25;;;;;;;10.60;4.82;;;;;;;;;;4971051;28;20042;-72
2022/02/11 07:28:53;;;;;;;13.10;5.95;;;;;;;;;;4993913;28;20038;-72
2022/02/11 07:31:20;;;;;;;9.60;4.95;;;;;;;;;;4995279;28;20501;-71
2022/02/11 07:33:48;;;;;;;13.00;5.47;;;;;;;;;;4994851;28;20038;-75
2022/02/11 07:36:15;;;;;;;14.88;4.97;;;;;;;;;;4994861;28;20038;-71
2022/02/11 07:38:43;;;;;;;13.70;5.80;;;;;;;;;;4995072;28;20042;-72
2022/02/11 07:41:12;;;;;;;11.88;5.82;;;;;;;;;;4977082;28;20073;-75
2022/02/11 07:43:40;;;;;;;9.13;5.38;;;;;;;;;;4995026;28;20410;-71
2022/02/11 07:46:10;;;;;;;12.35;5.72;;;;;;;;;;4995099;28;20046;-72
2022/02/11 07:48:37;;;;;;;8.20;5.10;;;;;;;;;;4994487;28;20513;-72
2022/02/11 07:51:05;;;;;;;11.18;5.30;;;;;;;;;;4977382;28;20387;-72
2022/02/11 07:53:35;;;;;;;14.85;5.53;;;;;;;;;;4994784;28;20042;-72
2022/02/11 07:56:03;;;;;;;14.40;5.28;;;;;;;;;;4994629;28;20038;-71
2022/02/11 07:58:31;;;;;;;9.52;5.15;;;;;;;;;;4994555;28;20429;-72
2022/02/11 08:00:59;;;;;;;7.72;5.15;;;;;;;;;;4994377;28;20058;-71
2022/02/11 08:03:27;;;;;;;10.70;5.55;;;;;;;;;;4994738;28;20073;-74
2022/02/11 08:05:54;;;;;;;8.90;4.60;;;;;;;;;;4977392;28;20101;-74
2022/02/11 08:08:26;;;;;;;11.25;5.22;;;;;;;;;;4994624;28;20516;-71
2022/02/11 08:10:55;;;;;;;9.63;5.20;;;;;;;;;;4994605;28;20046;-74
2022/02/11 08:13:25;;;;;;;10.77;5.53;;;;;;;;;;4994370;28;20042;-71
2022/02/11 08:15:52;;;;;;;13.15;5.80;;;;;;;;;;4976703;28;20053;-71
2022/02/11 08:18:20;;;;;;;11.30;5.32;;;;;;;;;;4994157;28;20447;-70
2022/02/11 08:21:09;;;;;;;13.77;6.03;;;;;;;;;;4980143;28;20053;-72
2022/02/11 08:23:36;;;;;;;18.52;6.05;;;;;;;;;;4994074;28;20129;-71
2022/02/11 08:26:07;;;;;;;16.48;6.38;;;;;;;;;;4993960;28;20043;-71
2022/02/11 08:28:39;;;;;;;17.77;6.13;;;;;;;;;;4994317;28;20073;-71
2022/02/11 08:31:06;;;;;;;10.60;5.88;;;;;;;;;;4994024;28;20053;-71
2022/02/11 08:33:34;;;;;;;17.55;6.32;;;;;;;;;;4994424;28;20073;-72
2022/02/11 08:36:02;;;;;;;13.20;6.80;;;;;;;;;;4993845;28;20077;-71
2022/02/11 08:38:30;;;;;;;12.20;6.28;;;;;;;;;;4976833;28;20042;-71
2022/02/11 08:40:59;;;;;;;14.45;6.50;;;;;;;;;;4993903;28;20045;-70
2022/02/11 08:43:28;;;;;;;14.68;6.63;;;;;;;;;;4994141;28;20465;-71
2022/02/11 08:45:55;;;;;;;17.75;7.07;;;;;;;;;;4993784;28;20077;-70
2022/02/11 08:48:23;;;;;;;17.38;6.80;;;;;;;;;;4993565;28;20050;-70
2022/02/11 08:50:50;;;;;;;11.40;6.40;;;;;;;;;;4993855;28;20681;-73
2022/02/11 08:53:34;;;;;;;12.57;6.13;;;;;;;;;;4978842;28;20053;-71
2022/02/11 08:56:05;;;;;;;14.68;6.40;;;;;;;;;;4993727;28;20061;-72
2022/02/11 08:58:34;;;;;;;12.00;6.88;;;;;;;;;;4975851;28;20073;-70
2022/02/11 09:01:01;;;;;;;22.85;8.40;;;;;;;;;;4993144;28;20058;-70
2022/02/11 09:03:29;;;;;;;13.85;9.13;;;;;;;;;;4976217;28;20092;-70
2022/02/11 09:05:56;;;;;;;19.45;8.38;;;;;;;;;;4993360;28;20038;-71
2022/02/11 09:08:26;;;;;;;21.23;8.32;;;;;;;;;;4993555;28;20121;-70
2022/02/11 09:10:53;;;;;;;17.10;8.20;;;;;;;;;;4993749;28;20042;-70
2022/02/11 09:13:23;;;;;;;17.77;7.75;;;;;;;;;;4993212;28;20046;-70
2022/02/11 09:15:51;;;;;;;16.05;8.05;;;;;;;;;;4976337;28;20065;-69
2022/02/11 09:18:19;;;;;;;16.95;7.88;;;;;;;;;;4976093;28;20449;-70
2022/02/11 09:20:48;;;;;;;18.13;8.00;;;;;;;;;;4993241;28;20413;-73
2022/02/11 09:23:17;;;;;;;24.85;8.10;;;;;;;;;;4993217;28;20053;-69
2022/02/11 09:25:46;;;;;;;16.10;7.22;;;;;;;;;;4993455;28;20046;-73
2022/02/11 09:28:14;;;;;;;18.05;7.70;;;;;;;;;;4975898;28;20054;-69
2022/02/11 09:30:42;;;;;;;16.88;7.20;;;;;;;;;;4993256;28;20050;-70
2022/02/11 09:33:11;;;;;;;17.83;7.95;;;;;;;;;;4993501;28;20118;-70
2022/02/11 09:35:42;;;;;;;10.90;7.15;;;;;;;;;;4992929;28;20409;-69
2022/02/11 09:38:09;;;;;;;15.60;6.72;;;;;;;;;;4993507;28;20101;-73
2022/02/11 09:40:44;;;;;;;13.07;6.30;;;;;;;;;;4993134;28;20042;-70
2022/02/11 09:43:12;;;;;;;11.70;5.75;;;;;;;;;;4992952;28;20070;-70
2022/02/11 09:45:42;;;;;;;11.48;5.20;;;;;;;;;;4976215;28;20125;-70
2022/02/11 09:48:08;;;;;;;14.75;4.93;;;;;;;;;;4992761;28;20072;-70
2022/02/11 09:50:34;;;;;;;11.50;4.97;;;;;;;;;;4992805;28;20113;-69
2022/02/11 09:53:09;;;;;;;13.40;5.38;;;;;;;;;;4992978;28;20483;-73
2022/02/11 09:55:40;;;;;;;13.25;4.75;;;;;;;;;;4993152;28;20409;-73
2022/02/11 09:58:15;;;;;;;13.88;5.05;;;;;;;;;;4992643;28;20382;-70
2022/02/11 10:00:46;;;;;;;9.88;4.50;;;;;;;;;;5118715;23;20053;-73
2022/02/11 10:03:16;;;;;;;9.52;4.50;;;;;;;;;;5052198;28;20020;-71
2022/02/11 10:05:49;;;;;;;12.85;4.65;;;;;;;;;;5052285;28;20407;-74
2022/02/11 10:08:18;;;;;;;8.98;4.40;;;;;;;;;;5052108;28;20379;-72
2022/02/11 10:10:49;;;;;;;9.07;4.75;;;;;;;;;;5055169;28;20480;-71
2022/02/11 10:13:18;;;;;;;12.15;5.13;;;;;;;;;;5055543;28;20044;-73
2022/02/11 10:15:51;;;;;;;13.65;4.95;;;;;;;;;;5055495;28;20121;-71
2022/02/11 10:18:20;;;;;;;12.35;5.22;;;;;;;;;;5055618;28;20385;-71
2022/02/11 10:20:53;;;;;;;17.08;4.97;;;;;;;;;;5037535;28;20033;-73
2022/02/11 10:23:23;;;;;;;11.70;4.38;;;;;;;;;;5055380;28;20051;-71
2022/02/11 10:25:52;;;;;;;8.43;4.45;;;;;;;;;;5037269;28;20479;-71
2022/02/11 10:28:27;;;;;;;11.13;4.80;;;;;;;;;;5055616;28;20144;-72
2022/02/11 10:31:03;;;;;;;9.77;4.43;;;;;;;;;;5055066;28;20131;-71
2022/02/11 10:33:50;;;;;;;14.70;4.57;;;;;;;;;;5037026;28;20444;-72
2022/02/11 10:36:18;;;;;;;11.82;5.03;;;;;;;;;;5054794;28;20120;-73
2022/02/11 10:39:11;;;;;;;8.63;4.85;;;;;;;;;;5055385;28;20060;-71
2022/02/11 10:41:41;;;;;;;11.75;4.57;;;;;;;;;;5037208;28;20526;-73
2022/02/11 10:44:13;;;;;;;10.95;4.57;;;;;;;;;;5021107;28;20045;-72
2022/02/11 10:46:48;;;;;;;12.93;4.45;;;;;;;;;;5037440;28;20415;-73
2022/02/11 10:49:18;;;;;;;7.85;4.40;;;;;;;;;;5054886;28;20044;-71
2022/02/11 10:51:46;;;;;;;8.10;3.83;;;;;;;;;;5037444;28;20047;-73
2022/02/11 10:54:28;;;;;;;16.95;4.18;;;;;;;;;;5055304;28;20043;-73
2022/02/11 10:57:01;;;;;;;7.18;3.97;;;;;;;;;;5054773;28;20075;-73
2022/02/11 10:59:29;;;;;;;7.68;4.00;;;;;;;;;;5039845;28;20059;-71
2022/02/11 11:02:01;;;;;;;9.68;3.58;;;;;;;;;;5037022;28;20069;-73
2022/02/11 11:04:29;;;;;;;7.50;3.33;;;;;;;;;;5054960;28;20642;-73
2022/02/11 11:06:57;;;;;;;13.63;4.18;;;;;;;;;;5054683;28;20047;-72
2022/02/11 11:09:28;;;;;;;8.57;3.50;;;;;;;;;;5030447;28;20045;-72
2022/02/11 11:11:57;;;;;;;6.13;3.55;;;;;;;;;;5054666;28;20045;-73
2022/02/11 11:14:30;;;;;;;14.40;4.35;;;;;;;;;;5046363;28;20135;-73
2022/02/11 11:17:00;;;;;;;7.40;4.00;;;;;;;;;;5053006;28;20103;-72
2022/02/11 11:19:33;;;;;;;12.73;4.38;;;;;;;;;;5053873;28;20467;-73
2022/02/11 11:22:11;;;;;;;11.63;4.50;;;;;;;;;;5050174;28;20140;-72
2022/02/11 11:24:47;;;;;;;8.75;4.55;;;;;;;;;;5032167;28;20128;-72
2022/02/11 11:27:34;;;;;;;7.78;4.82;;;;;;;;;;5054059;28;20037;-71
2022/02/11 11:30:21;;;;;;;9.15;4.70;;;;;;;;;;5051052;28;20076;-72
2022/02/11 11:33:07;;;;;;;14.50;5.65;;;;;;;;;;5049555;28;20041;-73
2022/02/11 11:35:40;;;;;;;16.02;5.07;;;;;;;;;;5053985;28;20076;-71
2022/02/11 11:38:14;;;;;;;10.33;5.10;;;;;;;;;;5054104;28;20040;-73
2022/02/11 11:40:55;;;;;;;12.52;5.47;;;;;;;;;;5054066;28;20040;-73
2022/02/11 11:43:33;;;;;;;17.13;5.82;;;;;;;;;;5029229;28;20119;-73
2022/02/11 11:46:16;;;;;;;11.90;5.65;;;;;;;;;;5054258;28;20374;-73
2022/02/11 11:48:59;;;;;;;13.00;5.90;;;;;;;;;;5048015;28;20131;-73
2022/02/11 11:51:31;;;;;;;10.32;5.22;;;;;;;;;;5053790;28;20090;-72
2022/02/11 11:54:22;;;;;;;10.40;5.55;;;;;;;;;;5053889;28;20041;-74
2022/02/11 11:56:53;;;;;;;13.77;5.35;;;;;;;;;;5053718;28;20150;-72
2022/02/11 11:59:28;;;;;;;10.43;5.00;;;;;;;;;;5047973;28;20506;-70
2022/02/11 12:02:14;;;;;;;10.30;5.13;;;;;;;;;;5013311;28;20054;-73
2022/02/11 12:04:41;;;;;;;11.10;5.10;;;;;;;;;;5033676;28;20465;-72
2022/02/11 12:07:11;;;;;;;11.57;5.82;;;;;;;;;;5033735;28;20037;-71
2022/02/11 12:09:38;;;;;;;16.23;5.72;;;;;;;;;;5033601;28;20144;-71
2022/02/11 12:12:09;;;;;;;9.98;5.63;;;;;;;;;;5033039;28;20042;-72
2022/02/11 12:14:39;;;;;;;8.38;5.45;;;;;;;;;;5033153;28;20041;-71
2022/02/11 12:17:10;;;;;;;11.23;5.60;;;;;;;;;;5033381;28;20044;-71
2022/02/11 12:19:39;;;;;;;10.48;4.47;;;;;;;;;;5033435;28;20417;-71
2022/02/11 12:22:07;;;;;;;9.68;4.18;;;;;;;;;;5033138;28;20048;-72
2022/02/11 12:27:29;;;;;;;10.75;4.30;;;;;;;;;;5033250;28;20080;-72
2022/02/11 12:30:01;;;;;;;8.63;4.00;;;;;;;;;;5033231;28;20124;-72
2022/02/11 12:32:29;;;;;;;6.73;3.63;;;;;;;;;;5011611;28;20177;-73
2022/02/11 12:35:00;;;;;;;6.75;3.67;;;;;;;;;;5030543;28;20493;-74
2022/02/11 12:37:29;;;;;;;7.65;3.60;;;;;;;;;;5032472;28;20037;-72
2022/02/11 12:40:02;;;;;;;6.15;3.28;;;;;;;;;;5013385;28;20038;-73
2022/02/11 12:42:30;;;;;;;;;;;;;;;;;;5003673;28;20443;-71
2022/02/11 12:44:59;;;;;;;10.45;3.53;;;;;;;;;;5019701;28;19961;-73
2022/02/11 12:47:27;;;;;;;9.85;3.60;;;;;;;;;;5001034;28;20034;-74
2022/02/11 12:49:56;;;;;;;9.38;3.20;;;;;;;;;;5018587;28;20416;-73
2022/02/11 12:52:25;;;;;;;8.00;3.30;;;;;;;;;;4985795;28;20042;-72
2022/02/11 12:55:12;;;;;;;7.00;3.92;;;;;;;;;;5029257;28;20040;-74
2022/02/11 12:57:41;;;;;;;8.50;3.38;;;;;;;;;;5013111;28;20042;-73
2022/02/11 13:00:14;;;;;;;7.82;3.53;;;;;;;;;;5012311;28;20517;-71
2022/02/11 13:02:42;;;;;;;6.53;3.63;;;;;;;;;;4992297;28;20038;-72
2022/02/11 13:05:09;;;;;;;9.30;3.92;;;;;;;;;;5030638;28;20037;-74
2022/02/11 13:07:39;;;;;;;14.10;3.55;;;;;;;;;;5011733;28;20038;-74
2022/02/11 13:10:08;;;;;;;6.93;3.75;;;;;;;;;;5026499;28;20112;-71
2022/02/11 13:12:36;;;;;;;8.65;4.10;;;;;;;;;;5002083;28;20041;-73
2022/02/11 13:15:09;;;;;;;8.27;3.63;;;;;;;;;;5003789;28;20034;-73
2022/02/11 13:17:37;;;;;;;8.20;3.65;;;;;;;;;;5007668;28;20046;-73
2022/02/11 13:20:05;;;;;;;5.63;3.58;;;;;;;;;;5030749;28;20105;-72
2022/02/11 13:22:36;;;;;;;12.23;4.05;;;;;;;;;;5018696;28;20045;-74
2022/02/11 13:25:05;;;;;;;10.00;4.15;;;;;;;;;;5003704;28;20038;-71
2022/02/11 13:27:52;;;;;;;7.57;3.88;;;;;;;;;;5002369;28;20054;-71
2022/02/11 13:30:24;;;;;;;7.18;3.63;;;;;;;;;;5016505;28;20053;-74
2022/02/11 13:32:52;;;;;;;6.75;3.50;;;;;;;;;;5023393;28;20116;-73
2022/02/11 13:35:20;;;;;;;8.82;3.85;;;;;;;;;;5018576;28;20033;-73
2022/02/11 13:37:50;;;;;;;7.93;3.60;;;;;;;;;;4982892;28;20383;-72
2022/02/11 13:40:22;;;;;;;14.20;3.80;;;;;;;;;;5029897;28;20113;-73
2022/02/11 13:43:01;;;;;;;10.80;3.85;;;;;;;;;;5026869;28;20041;-74
2022/02/11 13:45:30;;;;;;;6.22;3.60;;;;;;;;;;5031121;28;20034;-74
2022/02/11 13:47:58;;;;;;;7.47;3.75;;;;;;;;;;5009556;28;20126;-72
2022/02/11 13:50:25;;;;;;;5.47;3.50;;;;;;;;;;5029904;28;20034;-71
2022/02/11 13:53:06;;;;;;;7.75;3.72;;;;;;;;;;5029871;28;20048;-73
2022/02/11 13:55:39;;;;;;;7.50;3.67;;;;;;;;;;5029401;28;20036;-71
2022/02/11 13:58:14;;;;;;;7.80;3.70;;;;;;;;;;5010632;28;20046;-71
2022/02/11 14:00:44;;;;;;;8.02;3.78;;;;;;;;;;5015182;28;20049;-72
2022/02/11 14:03:20;;;;;;;8.10;3.95;;;;;;;;;;5045763;28;20045;-71
2022/02/11 14:05:52;;;;;;;8.77;3.67;;;;;;;;;;5038270;28;20048;-72
2022/02/11 14:08:21;;;;;;;7.93;3.80;;;;;;;;;;5037652;28;20045;-74
2022/02/11 14:11:06;;;;;;;8.05;4.15;;;;;;;;;;5037541;28;20120;-73
2022/02/11 14:13:35;;;;;;;6.78;3.67;;;;;;;;;;5052125;28;20116;-74
2022/02/11 14:16:04;;;;;;;12.52;4.18;;;;;;;;;;5055344;28;20049;-73
2022/02/11 14:18:33;;;;;;;8.02;3.95;;;;;;;;;;5055707;28;20044;-71
2022/02/11 14:21:00;;;;;;;8.55;3.60;;;;;;;;;;5037345;28;20496;-73
2022/02/11 14:23:31;;;;;;;6.93;3.80;;;;;;;;;;5054977;28;20087;-71
2022/02/11 14:26:01;;;;;;;8.10;3.90;;;;;;;;;;5024659;28;20048;-71
2022/02/11 14:28:30;;;;;;;6.75;3.90;;;;;;;;;;5035183;28;20048;-72
2022/02/11 14:30:58;;;;;;;5.53;3.30;;;;;;;;;;5035683;28;20069;-74
2022/02/11 14:33:26;;;;;;;6.05;3.88;;;;;;;;;;5017939;28;20095;-72
2022/02/11 14:35:55;;;;;;;9.38;4.07;;;;;;;;;;5032299;28;20041;-73
2022/02/11 14:38:27;;;;;;;13.20;4.15;;;;;;;;;;5038193;28;20028;-72
2022/02/11 14:43:41;;;;;;;7.75;3.90;;;;;;;;;;5036459;28;20056;-73
2022/02/11 14:46:09;;;;;;;6.55;3.92;;;;;;;;;;5055026;28;20048;-73
2022/02/11 14:48:36;;;;;;;6.15;3.63;;;;;;;;;;5034132;28;20128;-73
2022/02/11 14:51:04;;;;;;;8.55;3.63;;;;;;;;;;5049698;28;20045;-72
2022/02/11 14:53:31;;;;;;;8.40;4.20;;;;;;;;;;5032357;28;20075;-73
2022/02/11 14:55:59;;;;;;;6.93;3.80;;;;;;;;;;5045022;28;20091;-73
2022/02/11 14:58:27;;;;;;;13.60;4.47;;;;;;;;;;5043931;28;20029;-73
2022/02/11 15:00:56;;;;;;;9.02;4.10;;;;;;;;;;5045845;28;20057;-73
2022/02/11 15:03:25;;;;;;;7.95;3.88;;;;;;;;;;5048685;28;20516;-71
2022/02/11 15:05:53;;;;;;;6.60;4.45;;;;;;;;;;5048154;28;20037;-72
2022/02/11 15:08:21;;;;;;;8.95;4.00;;;;;;;;;;5044539;28;20056;-74
2022/02/11 15:10:48;;;;;;;7.60;3.92;;;;;;;;;;5034371;28;20040;-73
2022/02/11 15:13:16;;;;;;;9.75;4.43;;;;;;;;;;5028340;28;20132;-73
2022/02/11 15:15:44;;;;;;;6.50;4.15;;;;;;;;;;5043536;28;20049;-72
2022/02/11 15:18:12;;;;;;;7.43;4.45;;;;;;;;;;5044482;28;20123;-72
2022/02/11 15:20:43;;;;;;;7.00;4.13;;;;;;;;;;5027602;28;20393;-73
2022/02/11 15:23:11;;;;;;;8.88;4.10;;;;;;;;;;5042130;28;20049;-72
2022/02/11 15:25:39;;;;;;;6.60;3.75;;;;;;;;;;5044541;28;20368;-74
2022/02/11 15:28:07;;;;;;;5.55;3.80;;;;;;;;;;5042139;28;20372;-72
2022/02/11 15:30:36;;;;;;;7.32;3.70;;;;;;;;;;5054581;28;20037;-74
2022/02/11 15:33:04;;;;;;;6.47;4.00;;;;;;;;;;5045289;28;20029;-72
2022/02/11 15:35:31;;;;;;;6.18;3.92;;;;;;;;;;5043199;28;20439;-72
2022/02/11 15:38:00;;;;;;;7.85;4.40;;;;;;;;;;5043496;28;20040;-71
2022/02/11 15:40:29;;;;;;;13.70;4.30;;;;;;;;;;5027510;28;20041;-73
2022/02/11 15:43:00;;;;;;;10.75;4.10;;;;;;;;;;5044934;28;20033;-72
2022/02/11 15:45:28;;;;;;;6.45;3.85;;;;;;;;;;5042431;28;20065;-71
2022/02/11 15:47:55;;;;;;;8.63;4.35;;;;;;;;;;5043374;28;20037;-71
2022/02/11 15:50:23;;;;;;;8.35;4.47;;;;;;;;;;5043768;28;20116;-72
2022/02/11 15:52:52;;;;;;;11.63;4.60;;;;;;;;;;5033766;28;20037;-72
2022/02/11 15:55:20;;;;;;;6.53;4.00;;;;;;;;;;5034583;28;20505;-73
2022/02/11 15:57:48;;;;;;;10.75;4.80;;;;;;;;;;5050432;28;20041;-72
2022/02/11 16:00:16;;;;;;;6.90;4.20;;;;;;;;;;5026852;28;20358;-72
2022/02/11 16:02:44;;;;;;;6.85;4.80;;;;;;;;;;5032315;28;20132;-71
2022/02/11 16:05:12;;;;;;;7.63;4.25;;;;;;;;;;5033776;28;20381;-74
2022/02/11 16:07:42;;;;;;;7.57;4.13;;;;;;;;;;5033038;28;20041;-72
2022/02/11 16:10:10;;;;;;;10.27;4.72;;;;;;;;;;5031512;28;20076;-74
2022/02/11 16:12:38;;;;;;;8.48;4.55;;;;;;;;;;5027009;28;20046;-74
2022/02/11 16:15:10;;;;;;;7.43;4.68;;;;;;;;;;5027580;28;20076;-72
2022/02/11 16:18:01;;;;;;;12.18;4.72;;;;;;;;;;5044331;28;20041;-73
2022/02/11 16:20:39;;;;;;;11.63;5.30;;;;;;;;;;5039047;28;20033;-71
2022/02/11 16:23:10;;;;;;;22.80;11.65;;;;;;;;;;5043687;28;20037;-73
2022/02/11 16:25:38;;;;;;;11.82;5.35;;;;;;;;;;5048356;28;20373;-74
2022/02/11 16:28:08;;;;;;;15.02;6.13;;;;;;;;;;5049806;28;20040;-73
2022/02/11 16:30:36;;;;;;;10.40;5.72;;;;;;;;;;5042508;28;20457;-71
2022/02/11 16:33:05;;;;;;;12.30;5.93;;;;;;;;;;5051509;28;20036;-73
2022/02/11 16:35:35;;;;;;;13.35;5.10;;;;;;;;;;5048907;28;20033;-73
2022/02/11 16:38:03;;;;;;;10.80;6.03;;;;;;;;;;5047643;28;20069;-73
2022/02/11 16:40:31;;;;;;;12.55;5.53;;;;;;;;;;5049655;28;20032;-74
2022/02/11 16:42:59;;;;;;;12.70;7.15;;;;;;;;;;5046274;28;20392;-72
2022/02/11 16:45:26;;;;;;;12.30;7.55;;;;;;;;;;5027495;28;20041;-74
2022/02/11 16:47:54;;;;;;;11.43;6.68;;;;;;;;;;5030762;28;20049;-73
2022/02/11 16:50:22;;;;;;;12.63;6.25;;;;;;;;;;5033010;28;20037;-71
2022/02/11 16:52:50;;;;;;;13.30;6.35;;;;;;;;;;5044077;28;20067;-72
2022/02/11 16:55:17;;;;;;;12.10;6.70;;;;;;;;;;5032886;28;20401;-74
2022/02/11 16:57:46;;;;;;;10.25;6.28;;;;;;;;;;5032890;28;20401;-75
2022/02/11 17:00:14;;;;;;;13.77;7.35;;;;;;;;;;5034036;28;20091;-72
2022/02/11 17:02:42;;;;;;;13.45;7.50;;;;;;;;;;5032747;28;20044;-73
2022/02/11 17:05:13;;;;;;;11.07;7.30;;;;;;;;;;5014611;28;20068;-73
2022/02/11 17:07:41;;;;;;;16.30;7.03;;;;;;;;;;5011293;28;20120;-75
2022/02/11 17:10:09;;;;;;;13.18;7.68;;;;;;;;;;5014618;28;20038;-74
2022/02/11 17:12:39;;;;;;;10.55;7.78;;;;;;;;;;5006588;28;20452;-73
2022/02/11 17:15:07;;;;;;;11.48;7.28;;;;;;;;;;5013445;28;20053;-75
2022/02/11 17:17:34;;;;;;;14.75;8.32;;;;;;;;;;5007681;28;20050;-74
2022/02/11 17:20:03;;;;;;;10.20;7.63;;;;;;;;;;5019624;28;20041;-72
2022/02/11 17:22:31;;;;;;;12.70;7.53;;;;;;;;;;5026049;28;20045;-73
2022/02/11 17:24:58;;;;;;;17.42;7.53;;;;;;;;;;4996720;28;20129;-74
2022/02/11 17:27:26;;;;;;;10.73;7.07;;;;;;;;;;5027300;28;20042;-74
2022/02/11 17:29:53;;;;;;;14.20;7.95;;;;;;;;;;5020579;28;20041;-71
2022/02/11 17:32:21;;;;;;;11.93;8.07;;;;;;;;;;4992898;28;20045;-72
2022/02/11 17:34:48;;;;;;;11.43;7.32;;;;;;;;;;5011054;28;20106;-72
2022/02/11 17:37:17;;;;;;;10.07;7.95;;;;;;;;;;5013116;28;20053;-76
2022/02/11 17:39:46;;;;;;;13.18;7.65;;;;;;;;;;5023814;28;20042;-75
2022/02/11 17:42:17;;;;;;;10.43;7.10;;;;;;;;;;5019511;28;20040;-75
2022/02/11 17:44:45;;;;;;;10.50;8.00;;;;;;;;;;5000706;28;20080;-75
2022/02/11 17:47:13;;;;;;;11.95;8.55;;;;;;;;;;5021446;28;20042;-72
2022/02/11 17:49:44;;;;;;;13.52;8.80;;;;;;;;;;5002620;28;20096;-75
2022/02/11 17:52:12;;;;;;;16.75;9.13;;;;;;;;;;5013350;28;20153;-76
2022/02/11 17:54:40;;;;;;;12.88;8.50;;;;;;;;;;5018951;28;20044;-72
2022/02/11 17:57:09;;;;;;;14.88;9.02;;;;;;;;;;5022638;28;20034;-72
2022/02/11 17:59:37;;;;;;;13.73;8.70;;;;;;;;;;4998829;28;20420;-75
2022/02/11 18:02:05;;;;;;;12.35;8.73;;;;;;;;;;5035192;28;20039;-76
2022/02/11 18:04:33;;;;;;;12.18;8.55;;;;;;;;;;5034461;28;20055;-75
2022/02/11 18:07:01;;;;;;;12.85;8.60;;;;;;;;;;5034700;28;20103;-75
2022/02/11 18:09:28;;;;;;;12.70;8.70;;;;;;;;;;5034450;28;20045;-73
2022/02/11 18:11:56;;;;;;;16.50;10.13;;;;;;;;;;5017915;28;20523;-74
2022/02/11 18:14:30;;;;;;;16.40;9.23;;;;;;;;;;5051525;28;20134;-71
2022/02/11 18:16:59;;;;;;;13.35;9.27;;;;;;;;;;5046147;28;20551;-72
2022/02/11 18:19:29;;;;;;;15.70;9.48;;;;;;;;;;5024146;28;20045;-73
2022/02/11 18:21:57;;;;;;;13.88;9.32;;;;;;;;;;5033689;28;20050;-75
2022/02/11 18:24:25;;;;;;;19.90;9.68;;;;;;;;;;5031095;28;20030;-74
2022/02/11 18:26:52;;;;;;;15.88;8.50;;;;;;;;;;5031904;28;20068;-74
2022/02/11 18:29:21;;;;;;;17.67;9.23;;;;;;;;;;5044292;28;20041;-73
2022/02/11 18:31:50;;;;;;;12.32;7.75;;;;;;;;;;5024908;28;20045;-72
2022/02/11 18:34:18;;;;;;;19.02;8.20;;;;;;;;;;5043169;28;20361;-73
2022/02/11 18:36:47;;;;;;;14.90;8.20;;;;;;;;;;5027952;28;20703;-75